Ekwok, Alaska
Current Conditions -  °F | °C
As of 8:56 PM on Sunday 25 Jan 2015 (Local Time) from PANW Reporting Station
Clear Clear  
Wind Chill: -34°   Ceiling: Unl
Heat Index: -13°   Visibility: 10mi
Dew Point: -19°   Wind: 13mph
Humidity: 75%   Direction: 10°N
Pressure: 29.98"   Gusts: NA
Location:  59.35°N, 157.48°W
Report Text: PANW 260556Z AUTO 01011KT 10SM CLR M25/M28 A2998 RMK AO2 TSNO 58004 T12501283 11211 21250 SLP140 $
Loading
Personal Weather Stations






























Interactive Weather Map New forecast layout! Learn more

10-Day Weather Forecast

Advertisements
Track Severe Weather on mobile